Terminal Aerodrome Forecast
Issued by NWS

Home | Current Version | Previous Version | Text Only | Print | Product List | Glossary On
Versions: 1 2 3 4 5 6 7 8 9 10 11 12 13 14 15 16 17 18 19 20 21 22 23
000
FTUS43 KTOP 060500
TAFFOE
TAF
KFOE 060520Z 0606/0706 14013KT 5SM -SHRA VCTS OVC050CB
      TEMPO 0608/0612 2SM SHRA BR BKN025
     FM061200 17015G22KT 5SM -SHRA BKN025
     FM061800 17018G30KT P6SM VCSH SCT025 BKN050=

USA.gov is the U.S. government's official web portal to all federal, state and local government web resources and services.